createdAt,value
2023-05-14T00:04:50.066Z,71.91
2023-05-14T00:09:55.899Z,70.75
2023-05-14T00:14:59.867Z,71.17
2023-05-14T00:20:07.340Z,70.58
2023-05-14T00:25:13.944Z,71.75
2023-05-14T00:30:18.121Z,71.71
2023-05-14T00:35:22.953Z,71.76
2023-05-14T00:40:29.880Z,71.81
2023-05-14T00:45:34.155Z,71.98
2023-05-14T00:50:39.226Z,72.67
2023-05-14T00:55:45.934Z,72.74
2023-05-14T01:00:50.304Z,71.16
2023-05-14T01:06:02.801Z,71.72
2023-05-14T01:11:13.509Z,71.64
2023-05-14T01:16:20.360Z,71.58
2023-05-14T01:21:35.963Z,71.18
2023-05-14T01:26:39.856Z,71.39
2023-05-14T01:31:47.708Z,71.62
2023-05-14T01:36:55.077Z,72.08
2023-05-14T01:41:59.521Z,72.52
2023-05-14T01:47:04.961Z,71.88
2023-05-14T01:52:14.317Z,71.37
2023-05-14T01:57:18.436Z,71.63
2023-05-14T02:02:23.194Z,71.51
2023-05-14T02:07:28.988Z,71.81
2023-05-14T02:12:33.661Z,71.27
2023-05-14T02:17:38.309Z,73.02
2023-05-14T02:22:46.444Z,72.98
2023-05-14T02:27:50.975Z,72.68
2023-05-14T02:32:55.231Z,72.55
2023-05-14T02:38:00.969Z,72.63
2023-05-14T02:43:06.337Z,72.75
2023-05-14T02:48:10.609Z,72.52
2023-05-14T02:53:17.105Z,73.20
2023-05-14T02:58:26.030Z,71.96
2023-05-14T03:03:33.006Z,72.40
2023-05-14T03:08:41.813Z,73.14
2023-05-14T03:13:45.856Z,73.15
2023-05-14T03:18:50.665Z,72.31
2023-05-14T03:23:57.473Z,72.77
2023-05-14T03:29:01.407Z,72.95
2023-05-14T03:34:05.541Z,73.47
2023-05-14T03:39:11.493Z,73.60
2023-05-14T03:44:15.824Z,73.68
2023-05-14T03:49:20.109Z,74.52
2023-05-14T03:54:26.296Z,74.70
2023-05-14T03:59:30.701Z,73.91
2023-05-14T04:04:34.762Z,73.92
2023-05-14T04:09:42.025Z,73.37
2023-05-14T04:14:46.801Z,72.82
2023-05-14T04:19:51.597Z,73.21
2023-05-14T04:24:57.837Z,73.39
2023-05-14T04:30:02.505Z,72.00
2023-05-14T04:35:10.674Z,70.02
2023-05-14T04:40:17.134Z,68.43
2023-05-14T04:45:21.530Z,68.49
2023-05-14T04:50:27.473Z,66.70
2023-05-14T04:55:35.464Z,66.23
2023-05-14T05:00:40.358Z,64.07
2023-05-14T05:05:45.255Z,62.61
2023-05-14T05:10:51.349Z,60.29
2023-05-14T05:15:55.500Z,59.70
2023-05-14T05:21:00.679Z,56.10
2023-05-14T05:26:07.470Z,56.49
2023-05-14T05:31:12.050Z,57.63
2023-05-14T05:36:16.441Z,56.54
2023-05-14T05:41:22.742Z,55.56
2023-05-14T05:46:27.351Z,54.04
2023-05-14T05:51:32.103Z,55.32
2023-05-14T05:56:38.140Z,52.38
2023-05-14T06:01:43.951Z,53.07
2023-05-14T06:06:48.149Z,51.83
2023-05-14T06:11:55.565Z,51.68
2023-05-14T06:17:01.992Z,50.50
2023-05-14T06:22:07.066Z,49.54
2023-05-14T06:27:13.919Z,50.11
2023-05-14T06:32:18.193Z,49.63
2023-05-14T06:37:23.250Z,47.06
2023-05-14T06:42:31.038Z,49.41
2023-05-14T06:47:36.957Z,46.33
2023-05-14T06:52:41.586Z,47.23
2023-05-14T07:17:19.768Z,45.58
2023-05-14T07:22:23.281Z,43.74
2023-05-14T07:27:27.174Z,44.19
2023-05-14T07:32:32.322Z,42.30
2023-05-14T07:37:36.030Z,42.33
2023-05-14T07:42:39.480Z,41.14
2023-05-14T07:47:44.609Z,42.39
2023-05-14T07:52:48.091Z,42.35
2023-05-14T07:57:51.518Z,40.06
2023-05-14T08:02:56.885Z,39.29
2023-05-14T08:08:00.468Z,38.84
2023-05-14T08:13:03.959Z,39.85
2023-05-14T08:18:08.924Z,41.84
2023-05-14T08:23:12.624Z,39.80
2023-05-14T08:28:15.998Z,39.76
2023-05-14T08:33:20.822Z,39.98
2023-05-14T08:38:24.232Z,37.85
2023-05-14T08:43:31.966Z,37.64
2023-05-14T08:48:37.883Z,37.64
2023-05-14T08:53:41.957Z,39.01
2023-05-14T08:58:45.932Z,36.36
2023-05-14T09:03:51.791Z,37.91
2023-05-14T09:08:56.073Z,38.45
2023-05-14T09:13:59.856Z,37.88
2023-05-14T09:19:05.133Z,38.10
2023-05-14T09:24:09.973Z,39.09
2023-05-14T09:29:13.653Z,38.16
2023-05-14T09:34:25.485Z,38.86
2023-05-14T09:39:29.425Z,39.01
2023-05-14T09:44:33.340Z,39.46
2023-05-14T09:49:38.178Z,39.40
2023-05-14T09:54:42.360Z,38.51
2023-05-14T09:59:45.897Z,39.88
2023-05-14T10:04:53.147Z,38.34
2023-05-14T10:10:03.314Z,38.12
2023-05-14T10:15:18.342Z,38.99
2023-05-14T10:20:25.279Z,39.53
2023-05-14T10:25:29.689Z,38.57
2023-05-14T10:30:33.859Z,38.15
2023-05-14T10:36:03.631Z,39.10
2023-05-14T10:41:10.940Z,37.42
2023-05-14T10:46:16.256Z,39.26
2023-05-14T10:51:23.228Z,38.52
2023-05-14T10:56:27.716Z,38.35
2023-05-14T11:01:32.216Z,39.31
2023-05-14T11:06:43.369Z,38.82
2023-05-14T11:11:47.847Z,38.55
2023-05-14T11:16:52.132Z,39.43
2023-05-14T11:21:57.965Z,40.89
2023-05-14T11:27:03.830Z,40.77
2023-05-14T11:32:08.552Z,40.39
2023-05-14T11:37:16.520Z,40.07
2023-05-14T11:42:22.587Z,41.37
2023-05-14T11:47:26.761Z,39.97
2023-05-14T11:52:32.917Z,40.67
2023-05-14T11:57:37.782Z,42.17
2023-05-14T12:02:42.122Z,41.56
2023-05-14T12:07:49.293Z,42.01
2023-05-14T12:12:55.207Z,41.32
2023-05-14T12:18:02.041Z,40.87
2023-05-14T12:23:12.009Z,40.48
2023-05-14T12:28:17.313Z,41.45
2023-05-14T12:33:23.418Z,39.64
2023-05-14T12:38:31.732Z,39.28
2023-05-14T12:43:35.613Z,40.10
2023-05-14T12:48:41.712Z,41.62
2023-05-14T12:53:47.986Z,40.30
2023-05-14T12:58:51.778Z,40.20
2023-05-14T13:03:55.797Z,40.47
2023-05-14T13:09:04.234Z,41.34
2023-05-14T13:14:10.146Z,40.23
2023-05-14T13:19:16.995Z,39.94
2023-05-14T13:24:25.348Z,39.29
2023-05-14T13:29:31.680Z,39.52
2023-05-14T13:34:35.747Z,40.08
2023-05-14T13:39:41.798Z,39.59
2023-05-14T13:44:45.674Z,39.64
2023-05-14T13:49:49.496Z,39.61
2023-05-14T13:54:54.739Z,38.93
2023-05-14T14:00:00.867Z,40.14
2023-05-14T14:05:14.670Z,40.79
2023-05-14T14:10:21.019Z,40.19
2023-05-14T14:15:25.366Z,40.07
2023-05-14T14:20:32.155Z,41.78
2023-05-14T14:25:39.020Z,40.19
2023-05-14T14:30:44.259Z,41.34
2023-05-14T14:35:48.269Z,39.24
2023-05-14T14:40:53.850Z,40.06
2023-05-14T14:46:00.254Z,40.71
2023-05-14T14:51:05.999Z,41.29
2023-05-14T14:56:11.754Z,42.55
2023-05-14T15:01:18.335Z,42.93
2023-05-14T15:06:23.218Z,43.21
2023-05-14T15:11:30.218Z,43.23
2023-05-14T15:16:34.191Z,43.21
2023-05-14T15:21:38.298Z,43.73
2023-05-14T15:26:43.957Z,44.31
2023-05-14T15:31:47.852Z,44.05
2023-05-14T15:36:51.722Z,44.29
2023-05-14T15:41:57.394Z,45.42
2023-05-14T15:47:01.207Z,45.33
2023-05-14T15:52:05.176Z,47.13
2023-05-14T15:57:10.504Z,46.73
2023-05-14T16:02:15.104Z,46.21
2023-05-14T16:07:18.890Z,47.39
2023-05-14T16:12:24.561Z,47.45
2023-05-14T16:17:28.686Z,47.83
2023-05-14T16:22:34.822Z,48.80
2023-05-14T16:27:40.678Z,48.95
2023-05-14T16:32:46.785Z,49.66
2023-05-14T16:37:51.656Z,49.40
2023-05-14T16:42:57.215Z,50.31
2023-05-14T16:48:01.880Z,51.14
2023-05-14T16:53:05.863Z,51.01
2023-05-14T16:58:11.398Z,50.41
2023-05-14T17:03:15.242Z,51.40
2023-05-14T17:08:19.545Z,52.13
2023-05-14T17:13:25.260Z,52.25
2023-05-14T17:18:28.967Z,52.09
2023-05-14T17:23:32.856Z,52.18
2023-05-14T17:28:38.280Z,51.08
2023-05-14T17:33:42.388Z,52.08
2023-05-14T17:38:46.162Z,51.80
2023-05-14T17:43:52.604Z,50.81
2023-05-14T17:48:56.625Z,52.36
2023-05-14T17:54:03.017Z,53.36
2023-05-14T17:59:08.223Z,54.10
2023-05-14T18:04:15.129Z,54.88
2023-05-14T18:09:19.366Z,54.71
2023-05-14T18:14:24.738Z,55.70
2023-05-14T18:19:28.498Z,55.89
2023-05-14T18:24:32.167Z,56.78
2023-05-14T18:29:39.690Z,57.21
2023-05-14T18:34:44.216Z,59.03
2023-05-14T18:39:48.190Z,59.84
2023-05-14T18:44:55.012Z,60.14
2023-05-14T18:50:00.644Z,60.61
2023-05-14T18:55:07.481Z,61.75
2023-05-14T19:00:18.136Z,62.57
2023-05-14T19:05:23.030Z,62.61
2023-05-14T19:11:25.404Z,61.20
2023-05-14T19:17:30.848Z,61.18
2023-05-14T19:23:58.695Z,61.89
2023-05-14T19:29:49.151Z,62.69
2023-05-14T19:35:09.170Z,63.20
2023-05-14T19:40:13.733Z,63.54
2023-05-14T19:45:19.243Z,64.30
2023-05-14T19:50:23.338Z,65.47
2023-05-14T19:55:28.001Z,66.97
2023-05-14T20:00:35.010Z,67.15
2023-05-14T20:05:39.815Z,67.25
2023-05-14T20:10:45.814Z,67.60
2023-05-14T20:15:52.575Z,67.91
2023-05-14T20:20:57.638Z,68.31
2023-05-14T20:26:02.559Z,69.55
2023-05-14T20:31:09.789Z,69.47
2023-05-14T20:36:15.243Z,69.99
2023-05-14T20:41:21.052Z,71.03
2023-05-14T20:46:27.142Z,72.00
2023-05-14T20:51:31.914Z,72.49
2023-05-14T20:56:36.831Z,72.99
2023-05-14T21:01:42.798Z,73.21
2023-05-14T21:06:46.995Z,71.55
2023-05-14T21:11:51.053Z,71.42
2023-05-14T21:16:57.109Z,72.19
2023-05-14T21:22:01.142Z,73.21
2023-05-14T21:27:05.789Z,74.19
2023-05-14T21:32:12.077Z,74.30
2023-05-14T21:37:17.596Z,74.64
2023-05-14T21:42:22.798Z,74.75
2023-05-14T21:47:29.062Z,74.86
2023-05-14T21:52:33.782Z,75.30
2023-05-14T21:57:38.857Z,76.29
2023-05-14T22:02:45.051Z,76.69
2023-05-14T22:07:49.804Z,77.65
2023-05-14T22:12:54.946Z,76.73
2023-05-14T22:18:01.887Z,76.32
2023-05-14T22:23:06.502Z,76.12
2023-05-14T22:28:11.796Z,76.55
2023-05-14T22:33:19.409Z,77.42
2023-05-14T22:38:24.805Z,78.44
2023-05-14T22:43:29.464Z,78.74
2023-05-14T22:48:35.456Z,79.58
2023-05-14T22:53:40.790Z,79.50
2023-05-14T22:58:44.895Z,79.35
2023-05-14T23:03:51.276Z,79.85
2023-05-14T23:08:55.428Z,80.47
2023-05-14T23:13:59.615Z,79.66
2023-05-14T23:19:05.611Z,79.81
2023-05-14T23:24:10.323Z,79.91
2023-05-14T23:29:14.475Z,79.45
2023-05-14T23:34:22.331Z,79.52
2023-05-14T23:39:27.998Z,80.08
2023-05-14T23:44:33.411Z,80.12
2023-05-14T23:49:40.970Z,80.70
2023-05-14T23:54:46.100Z,80.95
2023-05-14T23:59:50.867Z,81.08
